This is the latest recevied weather packets stored in our database for station/object K1BES. If no packets are shown the sender has not sent any weather packets the latest 10 day(s).
| Time | Temp. | Humidity | Pressure | Rain* | Wind** | Luminosity | Snow |
|---|---|---|---|---|---|---|---|
| 1787585625 | 32.78° C | 69% | 1020.2 hPa | 0 mm | - | 854 W/m² | - |
| 1787585320 | 32.78° C | 69% | 1019.9 hPa | 0 mm | - | 766 W/m² | - |
| 1787585020 | 32.78° C | 69% | 1020 hPa | 0 mm | - | 820 W/m² | - |
| 1787584715 | 32.78° C | 69% | 1020 hPa | 0 mm | - | 823 W/m² | - |
| 1787584414 | 32.78° C | 69% | 1019.9 hPa | 0 mm | - | 782 W/m² | - |
| 1787584114 | 32.78° C | 68% | 1019.9 hPa | 0 mm | - | 765 W/m² | - |
| 1787583813 | 32.78° C | 68% | 1020 hPa | 0 mm | - | 750 W/m² | - |
| 1787583509 | 32.78° C | 70% | 1019.8 hPa | 0 mm | - | 731 W/m² | - |
| 1787583207 | 32.22° C | 69% | 1020 hPa | 0 mm | - | 713 W/m² | - |
| 1787582903 | 32.22° C | 71% | 1019.8 hPa | 0 mm | - | 691 W/m² | - |
| 1787582598 | 31.11° C | 72% | 1020 hPa | 0 mm | - | 677 W/m² | - |
| 1787582294 | 31.11° C | 73% | 1019.8 hPa | 0 mm | - | 662 W/m² | - |
| 1787581993 | 31.67° C | 72% | 1019.7 hPa | 0 mm | - | 71 W/m² | - |
| 1787581688 | 31.11° C | 76% | 1019.7 hPa | 0 mm | - | 639 W/m² | - |
| 1787581383 | 31.11° C | 72% | 1019.7 hPa | 0 mm | - | 71 W/m² | - |
| 1787581083 | 31.11° C | 73% | 1019.8 hPa | 0 mm | - | 115 W/m² | - |
| 1787580779 | 31.67° C | 73% | 1019.6 hPa | 0 mm | - | 594 W/m² | - |
| 1787580475 | 32.78° C | 71% | 1019.6 hPa | 0 mm | - | 97 W/m² | - |
| 1787580174 | 32.78° C | 71% | 1019.9 hPa | 0 mm | - | 552 W/m² | - |
| 1787579869 | 31.67° C | 72% | 1019.6 hPa | 0 mm | - | 497 W/m² | - |
| 1787579564 | 31.67° C | 72% | 1019.6 hPa | 0 mm | - | 478 W/m² | - |
| 1787579259 | 32.22° C | 70% | 1019.7 hPa | 0 mm | - | 458 W/m² | - |
| 1787578955 | 32.22° C | 71% | 1019.5 hPa | 0 mm | - | 450 W/m² | - |
| 1787578651 | 31.67° C | 73% | 1019.5 hPa | 0 mm | - | 439 W/m² | - |
| 1787578350 | 31.11° C | 73% | 1019.4 hPa | 0 mm | - | 423 W/m² | - |
* Rain latest hour (hover to see other rain measurements)
** Current wind speed in m/s (hover to see current wind gust speed)